createdAt,value
2019-04-06T00:00:08.838Z,12.10
2019-04-06T00:02:39.195Z,11.20
2019-04-06T00:05:07.610Z,8.87
2019-04-06T00:07:35.428Z,10.03
2019-04-06T00:10:03.454Z,9.38
2019-04-06T00:12:32.449Z,8.75
2019-04-06T00:15:02.297Z,8.30
2019-04-06T00:17:30.261Z,8.93
2019-04-06T00:19:58.214Z,9.48
2019-04-06T00:22:25.836Z,9.10
2019-04-06T00:24:53.527Z,9.50
2019-04-06T00:27:21.516Z,9.63
2019-04-06T00:29:49.164Z,8.77
2019-04-06T00:32:39.722Z,9.10
2019-04-06T00:35:07.689Z,8.80
2019-04-06T00:37:35.964Z,9.05
2019-04-06T00:40:04.931Z,7.60
2019-04-06T00:42:32.925Z,7.50
2019-04-06T00:45:00.663Z,7.92
2019-04-06T00:47:28.293Z,7.07
2019-04-06T00:49:58.298Z,8.25
2019-04-06T00:52:26.553Z,7.12
2019-04-06T00:54:54.149Z,8.55
2019-04-06T00:57:21.722Z,8.00
2019-04-06T00:59:50.320Z,7.65
2019-04-06T01:02:18.010Z,8.00
2019-04-06T01:04:45.555Z,7.60
2019-04-06T01:07:13.273Z,7.47
2019-04-06T01:09:40.648Z,8.10
2019-04-06T01:12:08.103Z,7.53
2019-04-06T01:14:35.818Z,8.48
2019-04-06T01:17:03.397Z,8.40
2019-04-06T01:19:31.382Z,7.47
2019-04-06T01:21:58.898Z,7.90
2019-04-06T01:24:26.393Z,7.92
2019-04-06T01:26:53.954Z,9.03
2019-04-06T01:29:22.090Z,8.83
2019-04-06T01:31:49.667Z,8.68
2019-04-06T01:34:17.639Z,9.45
2019-04-06T01:36:45.325Z,7.95
2019-04-06T01:39:12.927Z,8.15
2019-04-06T01:41:40.923Z,7.75
2019-04-06T01:44:08.405Z,6.72
2019-04-06T01:46:37.179Z,7.30
2019-04-06T01:49:05.686Z,9.35
2019-04-06T01:51:33.064Z,11.73
2019-04-06T01:54:00.439Z,10.50
2019-04-06T01:56:27.939Z,8.70
2019-04-06T01:58:55.837Z,9.80
2019-04-06T02:01:54.465Z,6.80
2019-04-06T02:04:21.954Z,8.30
2019-04-06T02:06:49.535Z,7.45
2019-04-06T02:09:16.977Z,7.60
2019-04-06T02:11:44.348Z,7.22
2019-04-06T02:14:11.808Z,7.22
2019-04-06T02:16:39.388Z,6.95
2019-04-06T02:19:07.002Z,8.10
2019-04-06T02:21:34.378Z,8.95
2019-04-06T02:24:02.524Z,9.68
2019-04-06T02:26:31.311Z,10.28
2019-04-06T02:28:59.124Z,12.82
2019-04-06T02:31:58.361Z,11.03
2019-04-06T02:35:00.241Z,8.53
2019-04-06T02:37:50.181Z,7.37
2019-04-06T02:40:46.503Z,8.28
2019-04-06T02:43:20.281Z,7.47
2019-04-06T02:45:47.690Z,6.97
2019-04-06T02:48:15.684Z,8.33
2019-04-06T02:50:43.373Z,10.50
2019-04-06T02:53:10.730Z,8.55
2019-04-06T02:55:38.421Z,8.20
2019-04-06T02:58:06.164Z,8.00
2019-04-06T03:00:33.705Z,7.42
2019-04-06T03:03:01.575Z,6.83
2019-04-06T03:05:30.439Z,6.70
2019-04-06T03:07:57.821Z,6.67
2019-04-06T03:10:25.538Z,7.75
2019-04-06T03:12:53.138Z,7.33
2019-04-06T03:15:20.577Z,6.62
2019-04-06T03:17:47.957Z,7.30
2019-04-06T03:20:15.816Z,6.60
2019-04-06T03:22:43.340Z,7.87
2019-04-06T03:25:10.852Z,7.10
2019-04-06T03:27:38.794Z,6.35
2019-04-06T03:30:07.365Z,6.78
2019-04-06T03:32:35.014Z,8.08
2019-04-06T03:35:02.623Z,7.00
2019-04-06T03:37:30.258Z,6.20
2019-04-06T03:39:58.152Z,6.17
2019-04-06T03:42:25.979Z,6.45
2019-04-06T03:44:53.535Z,6.72
2019-04-06T03:47:21.472Z,7.10
2019-04-06T03:49:49.012Z,6.20
2019-04-06T03:52:17.250Z,7.33
2019-04-06T03:54:44.707Z,5.97
2019-04-06T03:57:16.123Z,5.80
2019-04-06T03:59:41.540Z,6.47
2019-04-06T04:02:08.985Z,6.62
2019-04-06T04:04:36.878Z,6.90
2019-04-06T04:07:04.429Z,6.20
2019-04-06T04:09:32.048Z,6.90
2019-04-06T04:11:59.503Z,7.75
2019-04-06T04:14:29.860Z,5.62
2019-04-06T04:16:57.450Z,5.75
2019-04-06T04:19:24.810Z,6.72
2019-04-06T04:21:52.304Z,6.08
2019-04-06T04:24:19.988Z,7.60
2019-04-06T04:26:47.892Z,7.20
2019-04-06T04:29:15.237Z,7.30
2019-04-06T04:31:42.734Z,6.05
2019-04-06T04:34:10.482Z,6.03
2019-04-06T04:36:37.972Z,8.15
2019-04-06T04:39:06.434Z,7.30
2019-04-06T04:41:33.969Z,7.90
2019-04-06T04:44:01.929Z,6.75
2019-04-06T04:46:29.499Z,7.28
2019-04-06T04:48:56.879Z,7.95
2019-04-06T04:51:24.256Z,7.55
2019-04-06T04:53:51.968Z,8.15
2019-04-06T04:56:19.747Z,8.30
2019-04-06T04:58:47.201Z,7.10
2019-04-06T05:01:14.557Z,7.28
2019-04-06T05:03:42.070Z,8.40
2019-04-06T05:06:09.444Z,7.67
2019-04-06T05:08:37.124Z,6.50
2019-04-06T05:11:04.750Z,5.60
2019-04-06T05:13:33.560Z,5.95
2019-04-06T05:16:11.111Z,5.42
2019-04-06T05:18:39.067Z,5.67
2019-04-06T05:21:06.512Z,6.37
2019-04-06T05:23:34.371Z,5.40
2019-04-06T05:26:03.226Z,6.03
2019-04-06T05:28:30.825Z,6.20
2019-04-06T05:30:58.350Z,6.50
2019-04-06T05:33:26.137Z,8.15
2019-04-06T05:35:53.638Z,9.70
2019-04-06T05:38:33.824Z,8.70
2019-04-06T05:41:01.158Z,10.32
2019-04-06T05:43:28.655Z,12.00
2019-04-06T05:45:56.371Z,8.83
2019-04-06T05:48:24.150Z,6.40
2019-04-06T05:50:51.978Z,4.85
2019-04-06T05:53:19.463Z,5.25
2019-04-06T05:55:47.284Z,6.22
2019-04-06T05:58:15.137Z,5.05
2019-04-06T06:00:42.645Z,5.45
2019-04-06T06:03:10.780Z,4.97
2019-04-06T06:05:40.965Z,5.30
2019-04-06T06:08:08.289Z,5.78
2019-04-06T06:10:38.297Z,8.58
2019-04-06T06:13:05.643Z,17.00
2019-04-06T06:15:33.150Z,15.15
2019-04-06T06:18:00.549Z,15.95
2019-04-06T06:20:28.096Z,14.35
2019-04-06T06:22:55.950Z,15.18
2019-04-06T06:25:23.374Z,14.93
2019-04-06T06:27:50.733Z,15.95
2019-04-06T06:30:18.248Z,16.80
2019-04-06T06:32:45.881Z,16.12
2019-04-06T06:35:13.435Z,15.38
2019-04-06T06:37:41.504Z,17.27
2019-04-06T06:40:09.138Z,16.87
2019-04-06T06:42:36.657Z,15.90
2019-04-06T06:45:04.383Z,16.10
2019-04-06T06:47:32.671Z,17.80
2019-04-06T06:50:00.361Z,18.07
2019-04-06T06:52:28.169Z,17.98
2019-04-06T06:54:55.674Z,16.62
2019-04-06T06:57:23.834Z,18.57
2019-04-06T06:59:51.303Z,17.98
2019-04-06T07:02:18.758Z,17.85
2019-04-06T07:04:46.520Z,15.35
2019-04-06T07:07:14.142Z,18.10
2019-04-06T07:09:42.658Z,17.45
2019-04-06T07:12:10.101Z,18.95
2019-04-06T07:14:37.500Z,20.57
2019-04-06T07:17:04.860Z,16.40
2019-04-06T07:19:32.268Z,17.90
2019-04-06T07:22:00.064Z,17.20
2019-04-06T07:24:27.764Z,16.52
2019-04-06T07:26:55.500Z,16.52
2019-04-06T07:29:23.469Z,17.05
2019-04-06T07:31:50.884Z,17.37
2019-04-06T07:34:18.514Z,17.10
2019-04-06T07:36:46.043Z,17.70
2019-04-06T07:39:13.864Z,20.20
2019-04-06T07:41:41.458Z,20.10
2019-04-06T07:44:09.599Z,19.07
2019-04-06T07:46:37.770Z,19.57
2019-04-06T07:49:09.766Z,19.32
2019-04-06T07:51:35.182Z,18.42
2019-04-06T07:54:02.863Z,20.95
2019-04-06T07:56:30.763Z,22.13
2019-04-06T07:58:58.153Z,20.77
2019-04-06T08:01:25.992Z,20.62
2019-04-06T08:03:53.625Z,21.52
2019-04-06T08:06:21.111Z,22.90
2019-04-06T08:08:48.425Z,22.98
2019-04-06T08:11:15.802Z,20.62
2019-04-06T08:13:43.248Z,22.77
2019-04-06T08:16:11.054Z,24.10
2019-04-06T08:18:38.610Z,25.92
2019-04-06T08:21:06.188Z,25.57
2019-04-06T08:23:33.995Z,26.45
2019-04-06T08:26:01.397Z,25.35
2019-04-06T08:28:28.855Z,25.17
2019-04-06T08:30:56.706Z,25.40
2019-04-06T08:33:24.043Z,24.50
2019-04-06T08:35:51.450Z,24.65
2019-04-06T08:38:19.139Z,24.05
2019-04-06T08:40:46.986Z,22.87
2019-04-06T08:43:14.549Z,23.90
2019-04-06T08:45:43.093Z,23.52
2019-04-06T08:48:11.107Z,24.85
2019-04-06T08:50:38.648Z,27.82
2019-04-06T08:53:06.260Z,26.95
2019-04-06T08:55:33.893Z,27.45
2019-04-06T08:58:01.215Z,28.35
2019-04-06T09:00:29.265Z,27.70
2019-04-06T09:02:56.773Z,30.05
2019-04-06T09:05:24.151Z,32.80
2019-04-06T09:07:51.962Z,32.90
2019-04-06T09:10:19.605Z,33.02
2019-04-06T09:12:47.013Z,32.83
2019-04-06T09:15:15.909Z,33.00
2019-04-06T09:17:43.675Z,34.67
2019-04-06T09:20:11.067Z,32.33
2019-04-06T09:22:38.601Z,32.05
2019-04-06T09:25:06.186Z,33.23
2019-04-06T09:27:33.980Z,34.80
2019-04-06T09:30:01.766Z,36.68
2019-04-06T09:32:30.429Z,35.90
2019-04-06T09:34:57.772Z,33.88
2019-04-06T09:37:25.292Z,35.28
2019-04-06T09:39:54.094Z,35.68
2019-04-06T09:42:22.299Z,33.75
2019-04-06T09:45:18.614Z,33.88
2019-04-06T09:48:04.709Z,33.67
2019-04-06T09:50:50.964Z,37.42
2019-04-06T09:53:34.605Z,36.08
2019-04-06T09:56:08.742Z,35.90
2019-04-06T09:58:45.390Z,34.63
2019-04-06T10:01:38.797Z,33.88
2019-04-06T10:04:30.390Z,32.35
2019-04-06T10:07:15.874Z,33.30
2019-04-06T10:10:01.577Z,33.85
2019-04-06T10:12:49.051Z,32.78
2019-04-06T10:15:35.578Z,32.42
2019-04-06T10:18:20.017Z,33.83
2019-04-06T10:21:06.452Z,33.08
2019-04-06T10:23:59.823Z,35.45
2019-04-06T10:26:46.926Z,34.18
2019-04-06T10:29:31.949Z,31.87
2019-04-06T10:32:04.923Z,33.15
2019-04-06T10:34:50.990Z,34.07
2019-04-06T10:37:33.086Z,34.33
2019-04-06T10:40:19.454Z,33.87
2019-04-06T10:43:05.601Z,33.53
2019-04-06T10:45:43.973Z,36.20
2019-04-06T10:48:31.223Z,33.43
2019-04-06T10:51:27.658Z,34.60
2019-04-06T10:54:09.533Z,32.90
2019-04-06T10:57:02.588Z,32.20
2019-04-06T10:59:44.558Z,34.40
2019-04-06T11:02:30.112Z,33.80
2019-04-06T11:05:20.688Z,36.90
2019-04-06T11:08:13.694Z,36.35
2019-04-06T11:10:53.054Z,37.33
2019-04-06T11:13:31.027Z,36.50
2019-04-06T11:16:24.019Z,36.67
2019-04-06T11:19:10.189Z,32.67
2019-04-06T11:24:52.713Z,34.80
2019-04-06T11:27:48.263Z,33.10
2019-04-06T11:30:44.400Z,33.27
2019-04-06T11:33:32.262Z,33.40
2019-04-06T11:36:18.525Z,34.50
2019-04-06T11:39:04.490Z,30.40
2019-04-06T11:42:07.844Z,32.00
2019-04-06T11:44:50.884Z,30.50
2019-04-06T11:47:47.564Z,32.57
2019-04-06T11:50:34.608Z,30.30
2019-04-06T11:53:37.379Z,29.97
2019-04-06T11:56:23.108Z,33.93
2019-04-06T11:59:00.919Z,31.03
2019-04-06T12:01:38.615Z,33.03
2019-04-06T12:04:24.639Z,31.70
2019-04-06T12:07:17.032Z,32.00
2019-04-06T12:09:50.416Z,28.93
2019-04-06T12:12:36.317Z,34.53
2019-04-06T12:15:26.532Z,26.13
2019-04-06T12:18:12.578Z,26.67
2019-04-06T12:20:51.763Z,24.63
2019-04-06T12:23:41.942Z,26.43
2019-04-06T12:26:32.244Z,25.90
2019-04-06T12:29:11.050Z,25.40
2019-04-06T12:31:54.528Z,24.37
2019-04-06T12:34:40.708Z,24.80
2019-04-06T12:37:46.610Z,22.57
2019-04-06T12:40:29.895Z,23.70
2019-04-06T12:43:27.926Z,23.80
2019-04-06T12:46:15.679Z,23.30
2019-04-06T12:49:04.808Z,22.07
2019-04-06T12:51:58.579Z,21.00
2019-04-06T12:54:44.927Z,20.90
2019-04-06T12:57:30.919Z,20.27
2019-04-06T13:00:14.927Z,21.80
2019-04-06T13:02:50.581Z,22.00
2019-04-06T13:05:33.109Z,22.23
2019-04-06T13:08:18.884Z,24.20
2019-04-06T13:11:19.914Z,23.97
2019-04-06T13:14:00.774Z,23.57
2019-04-06T13:16:46.341Z,23.80
2019-04-06T13:19:20.624Z,21.07
2019-04-06T13:21:55.810Z,22.77
2019-04-06T13:24:39.291Z,23.17
2019-04-06T13:27:19.802Z,23.30
2019-04-06T13:30:13.257Z,22.67
2019-04-06T13:33:02.983Z,22.10
2019-04-06T13:35:50.025Z,22.47
2019-04-06T13:38:35.986Z,22.17
2019-04-06T13:41:14.718Z,23.33
2019-04-06T13:43:51.768Z,22.80
2019-04-06T13:46:38.529Z,23.20
2019-04-06T13:49:29.225Z,23.13
2019-04-06T13:52:15.128Z,22.67
2019-04-06T13:55:06.323Z,22.00
2019-04-06T13:58:12.303Z,22.90
2019-04-06T14:00:58.479Z,23.00
2019-04-06T14:03:45.578Z,21.67
2019-04-06T14:06:22.558Z,21.57
2019-04-06T14:08:56.829Z,21.83
2019-04-06T14:11:32.093Z,23.40
2019-04-06T14:14:17.581Z,23.47
2019-04-06T14:17:07.115Z,23.00
2019-04-06T14:20:00.448Z,23.67
2019-04-06T14:22:48.988Z,21.73
2019-04-06T14:25:31.889Z,23.67
2019-04-06T14:28:17.478Z,22.83
2019-04-06T14:30:56.582Z,25.63
2019-04-06T14:33:42.474Z,24.50
2019-04-06T14:36:30.113Z,23.80
2019-04-06T14:39:26.559Z,25.23
2019-04-06T14:42:16.557Z,22.90
2019-04-06T14:45:09.747Z,23.30
2019-04-06T14:47:48.864Z,22.13
2019-04-06T14:50:26.503Z,23.60
2019-04-06T14:53:19.824Z,24.63
2019-04-06T14:56:15.557Z,23.77
2019-04-06T14:59:09.315Z,25.00
2019-04-06T15:02:00.154Z,24.37
2019-04-06T15:04:46.005Z,25.77
2019-04-06T15:07:36.119Z,24.30
2019-04-06T15:10:24.085Z,23.67
2019-04-06T15:13:01.609Z,25.73
2019-04-06T15:15:55.395Z,25.10
2019-04-06T15:18:48.864Z,24.50
2019-04-06T15:21:29.849Z,26.47
2019-04-06T15:24:11.084Z,23.83
2019-04-06T15:26:55.845Z,25.37
2019-04-06T15:29:41.950Z,25.70
2019-04-06T15:32:27.638Z,24.43
2019-04-06T15:35:11.430Z,23.73
2019-04-06T15:37:50.615Z,24.53
2019-04-06T15:40:28.856Z,22.90
2019-04-06T15:43:34.080Z,24.20
2019-04-06T15:46:35.855Z,21.93
2019-04-06T15:49:16.790Z,23.90
2019-04-06T15:52:10.625Z,21.87
2019-04-06T15:54:55.330Z,20.67
2019-04-06T15:57:54.864Z,23.10
2019-04-06T16:00:41.877Z,20.10
2019-04-06T16:03:28.070Z,22.67
2019-04-06T16:06:13.825Z,21.40
2019-04-06T16:09:00.841Z,19.17
2019-04-06T16:11:47.983Z,20.27
2019-04-06T16:14:25.752Z,19.10
2019-04-06T16:17:15.742Z,19.53
2019-04-06T16:19:58.442Z,20.80
2019-04-06T16:22:49.736Z,18.87
2019-04-06T16:25:27.196Z,20.27
2019-04-06T16:28:09.551Z,20.03
2019-04-06T16:31:05.378Z,19.90
2019-04-06T16:33:48.342Z,20.90
2019-04-06T16:36:30.230Z,19.43
2019-04-06T16:39:27.793Z,20.30
2019-04-06T16:42:30.702Z,21.30
2019-04-06T16:45:11.328Z,20.67
2019-04-06T16:47:50.371Z,20.43
2019-04-06T16:50:30.596Z,24.70
2019-04-06T16:53:08.139Z,27.30
2019-04-06T16:55:57.263Z,29.67
2019-04-06T16:58:39.614Z,23.00
2019-04-06T17:01:16.653Z,20.87
2019-04-06T17:04:00.323Z,19.03
2019-04-06T17:07:03.205Z,18.57
2019-04-06T17:09:44.350Z,19.30
2019-04-06T17:12:34.273Z,17.10
2019-04-06T17:15:10.912Z,17.03
2019-04-06T17:17:58.754Z,17.73
2019-04-06T17:20:49.345Z,17.63
2019-04-06T17:23:31.110Z,17.40
2019-04-06T17:26:20.632Z,18.57
2019-04-06T17:29:14.072Z,19.43
2019-04-06T17:31:51.875Z,17.63
2019-04-06T17:34:37.350Z,17.10
2019-04-06T17:37:23.449Z,18.00
2019-04-06T17:40:03.512Z,19.57
2019-04-06T17:42:41.693Z,18.53
2019-04-06T17:45:22.732Z,18.00
2019-04-06T17:48:19.676Z,17.37
2019-04-06T17:51:15.616Z,17.30
2019-04-06T17:53:48.984Z,16.87
2019-04-06T17:56:35.131Z,15.47
2019-04-06T17:59:22.138Z,16.60
2019-04-06T18:02:01.518Z,17.20
2019-04-06T18:04:47.880Z,14.30
2019-04-06T18:07:38.170Z,15.10
2019-04-06T18:10:28.170Z,14.70
2019-04-06T18:13:24.144Z,15.70
2019-04-06T18:15:51.945Z,17.60
2019-04-06T18:18:19.518Z,22.60
2019-04-06T18:20:47.999Z,24.87
2019-04-06T18:23:16.741Z,23.77
2019-04-06T18:25:44.698Z,24.00
2019-04-06T18:28:12.198Z,18.77
2019-04-06T18:30:40.611Z,19.70
2019-04-06T18:33:14.859Z,19.77
2019-04-06T18:35:42.823Z,17.47
2019-04-06T18:38:24.231Z,21.57
2019-04-06T18:41:11.360Z,19.90
2019-04-06T18:43:39.856Z,20.43
2019-04-06T18:46:07.804Z,18.43
2019-04-06T18:48:35.360Z,19.37
2019-04-06T18:51:03.392Z,17.73
2019-04-06T18:53:31.015Z,18.83
2019-04-06T18:55:58.504Z,24.27
2019-04-06T18:58:26.070Z,24.30
2019-04-06T19:00:54.017Z,24.57
2019-04-06T19:03:22.039Z,22.17
2019-04-06T19:05:50.594Z,17.60
2019-04-06T19:08:18.859Z,15.33
2019-04-06T19:10:46.751Z,11.40
2019-04-06T19:13:14.634Z,10.37
2019-04-06T19:15:42.640Z,11.33
2019-04-06T19:18:10.224Z,12.37
2019-04-06T19:20:37.663Z,13.40
2019-04-06T19:23:05.011Z,13.20
2019-04-06T19:25:32.808Z,14.00
2019-04-06T19:28:00.348Z,14.00
2019-04-06T19:30:28.640Z,13.53
2019-04-06T19:32:56.728Z,14.47
2019-04-06T19:35:24.627Z,16.63
2019-04-06T19:37:52.177Z,15.67
2019-04-06T19:40:19.686Z,16.47
2019-04-06T19:42:47.176Z,16.23
2019-04-06T19:45:15.245Z,13.67
2019-04-06T19:47:42.727Z,12.80
2019-04-06T19:50:10.583Z,12.60
2019-04-06T19:52:38.427Z,11.97
2019-04-06T19:55:07.386Z,12.63
2019-04-06T19:57:35.147Z,12.40
2019-04-06T20:00:03.983Z,14.00
2019-04-06T20:02:31.776Z,14.20
2019-04-06T20:04:59.294Z,14.23
2019-04-06T20:07:26.791Z,12.83
2019-04-06T20:09:54.268Z,15.03
2019-04-06T20:12:21.956Z,14.43
2019-04-06T20:14:49.822Z,13.23
2019-04-06T20:17:17.640Z,13.60
2019-04-06T20:19:45.504Z,13.37
2019-04-06T20:22:12.955Z,13.50
2019-04-06T20:24:41.075Z,13.33
2019-04-06T20:27:08.548Z,12.53
2019-04-06T20:29:36.416Z,13.57
2019-04-06T20:32:04.020Z,12.30
2019-04-06T20:34:32.259Z,14.63
2019-04-06T20:37:00.291Z,15.77
2019-04-06T20:39:27.653Z,17.70
2019-04-06T20:41:55.480Z,16.93
2019-04-06T20:44:23.323Z,15.03
2019-04-06T20:46:51.088Z,16.90
2019-04-06T20:49:18.768Z,15.47
2019-04-06T20:51:47.116Z,16.20
2019-04-06T20:54:14.708Z,16.90
2019-04-06T20:56:53.247Z,21.60
2019-04-06T20:59:12.899Z,20.73
2019-04-06T21:01:40.734Z,22.10
2019-04-06T21:04:08.319Z,22.27
2019-04-06T21:06:36.157Z,21.63
2019-04-06T21:09:08.906Z,21.77
2019-04-06T21:11:36.765Z,18.97
2019-04-06T21:14:04.342Z,14.80
2019-04-06T21:16:32.006Z,17.20
2019-04-06T21:19:00.175Z,18.53
2019-04-06T21:21:28.215Z,18.37
2019-04-06T21:23:56.117Z,17.63
2019-04-06T21:26:24.725Z,17.43
2019-04-06T21:28:53.052Z,17.90
2019-04-06T21:31:20.523Z,15.30
2019-04-06T21:33:50.482Z,14.70
2019-04-06T21:36:35.405Z,14.43
2019-04-06T21:39:06.412Z,15.67
2019-04-06T21:41:34.261Z,15.10
2019-04-06T21:44:02.326Z,15.00
2019-04-06T21:46:29.940Z,16.70
2019-04-06T21:48:57.867Z,17.17
2019-04-06T21:51:25.822Z,18.50
2019-04-06T21:53:53.558Z,16.73
2019-04-06T21:56:21.424Z,16.47
2019-04-06T21:58:48.924Z,14.20
2019-04-06T22:01:18.617Z,12.20
2019-04-06T22:03:48.437Z,11.80
2019-04-06T22:06:15.972Z,12.67
2019-04-06T22:08:43.500Z,17.37
2019-04-06T22:11:11.016Z,22.40
2019-04-06T22:13:38.890Z,23.97
2019-04-06T22:16:06.330Z,21.80
2019-04-06T22:18:34.197Z,22.20
2019-04-06T22:21:02.176Z,27.33
2019-04-06T22:23:39.754Z,23.83
2019-04-06T22:25:59.319Z,22.10
2019-04-06T22:28:27.208Z,19.10
2019-04-06T22:30:55.314Z,21.60
2019-04-06T22:33:23.231Z,20.40
2019-04-06T22:35:51.004Z,20.87
2019-04-06T22:38:18.783Z,20.43
2019-04-06T22:40:46.550Z,18.10
2019-04-06T22:43:14.638Z,17.70
2019-04-06T22:45:42.497Z,16.10
2019-04-06T22:48:10.484Z,16.97
2019-04-06T22:50:38.242Z,16.30
2019-04-06T22:53:06.480Z,15.60
2019-04-06T22:55:34.607Z,15.40
2019-04-06T22:58:02.744Z,14.67
2019-04-06T23:00:39.895Z,14.37
2019-04-06T23:03:26.387Z,15.83
2019-04-06T23:05:57.531Z,15.73
2019-04-06T23:08:25.601Z,16.07
2019-04-06T23:10:53.867Z,16.80
2019-04-06T23:13:21.454Z,16.33
2019-04-06T23:15:49.688Z,16.77
2019-04-06T23:18:17.509Z,16.50
2019-04-06T23:20:46.029Z,15.83
2019-04-06T23:23:14.258Z,16.53
2019-04-06T23:25:42.462Z,18.50
2019-04-06T23:28:10.774Z,16.83
2019-04-06T23:30:38.501Z,16.03
2019-04-06T23:33:06.570Z,17.40
2019-04-06T23:35:34.596Z,17.77
2019-04-06T23:38:02.095Z,18.10
2019-04-06T23:40:29.516Z,17.30
2019-04-06T23:42:58.119Z,16.67
2019-04-06T23:45:25.494Z,17.63
2019-04-06T23:47:53.705Z,17.97
2019-04-06T23:50:21.477Z,17.17
2019-04-06T23:52:48.884Z,18.53
2019-04-06T23:55:16.770Z,17.23
2019-04-06T23:57:44.610Z,16.93
